sensor_id;sensor_type;location;lat;lon;timestamp;P1;durP1;ratioP1;P2;durP2;ratioP2
65033;SDS011;51601;51.356;12.458;2023-04-09T00:01:37;41.95;;;18.65;;
65033;SDS011;51601;51.356;12.458;2023-04-09T00:06:02;45.15;;;19.08;;
65033;SDS011;51601;51.356;12.458;2023-04-09T00:10:30;42.43;;;18.20;;
65033;SDS011;51601;51.356;12.458;2023-04-09T00:14:54;44.50;;;19.10;;
65033;SDS011;51601;51.356;12.458;2023-04-09T00:19:19;43.67;;;19.30;;
65033;SDS011;51601;51.356;12.458;2023-04-09T00:23:44;42.07;;;17.80;;
65033;SDS011;51601;51.356;12.458;2023-04-09T00:28:12;41.30;;;17.10;;
65033;SDS011;51601;51.356;12.458;2023-04-09T00:32:38;34.80;;;16.42;;
65033;SDS011;51601;51.356;12.458;2023-04-09T00:37:02;34.83;;;16.15;;
65033;SDS011;51601;51.356;12.458;2023-04-09T00:41:26;34.13;;;16.13;;
65033;SDS011;51601;51.356;12.458;2023-04-09T00:45:52;36.35;;;16.55;;
65033;SDS011;51601;51.356;12.458;2023-04-09T00:50:16;36.90;;;16.50;;
65033;SDS011;51601;51.356;12.458;2023-04-09T00:54:41;39.63;;;17.70;;
65033;SDS011;51601;51.356;12.458;2023-04-09T00:59:05;38.45;;;16.90;;
65033;SDS011;51601;51.356;12.458;2023-04-09T01:03:35;40.40;;;17.83;;
65033;SDS011;51601;51.356;12.458;2023-04-09T01:08:03;41.93;;;19.17;;
65033;SDS011;51601;51.356;12.458;2023-04-09T01:12:32;45.30;;;19.90;;
65033;SDS011;51601;51.356;12.458;2023-04-09T01:17:10;47.78;;;20.80;;
65033;SDS011;51601;51.356;12.458;2023-04-09T01:21:41;48.13;;;20.10;;
65033;SDS011;51601;51.356;12.458;2023-04-09T01:26:09;44.17;;;18.90;;
65033;SDS011;51601;51.356;12.458;2023-04-09T01:30:48;48.33;;;19.55;;
65033;SDS011;51601;51.356;12.458;2023-04-09T01:35:16;49.90;;;21.02;;
65033;SDS011;51601;51.356;12.458;2023-04-09T01:39:44;46.33;;;19.27;;
65033;SDS011;51601;51.356;12.458;2023-04-09T01:44:09;50.95;;;21.40;;
65033;SDS011;51601;51.356;12.458;2023-04-09T01:48:33;44.47;;;18.52;;
65033;SDS011;51601;51.356;12.458;2023-04-09T01:52:57;46.83;;;18.07;;
65033;SDS011;51601;51.356;12.458;2023-04-09T01:57:24;47.00;;;19.35;;
65033;SDS011;51601;51.356;12.458;2023-04-09T02:01:51;45.33;;;19.73;;
65033;SDS011;51601;51.356;12.458;2023-04-09T02:06:23;44.65;;;19.75;;
65033;SDS011;51601;51.356;12.458;2023-04-09T02:10:59;44.50;;;19.17;;
65033;SDS011;51601;51.356;12.458;2023-04-09T02:15:28;47.63;;;19.55;;
65033;SDS011;51601;51.356;12.458;2023-04-09T02:19:56;43.72;;;18.83;;
65033;SDS011;51601;51.356;12.458;2023-04-09T02:24:35;48.63;;;21.73;;
65033;SDS011;51601;51.356;12.458;2023-04-09T02:28:59;50.63;;;21.63;;
65033;SDS011;51601;51.356;12.458;2023-04-09T02:33:23;51.40;;;21.75;;
65033;SDS011;51601;51.356;12.458;2023-04-09T02:37:47;51.13;;;21.30;;
65033;SDS011;51601;51.356;12.458;2023-04-09T02:42:13;51.58;;;22.15;;
65033;SDS011;51601;51.356;12.458;2023-04-09T02:46:37;51.88;;;21.83;;
65033;SDS011;51601;51.356;12.458;2023-04-09T02:51:03;58.33;;;24.85;;
65033;SDS011;51601;51.356;12.458;2023-04-09T02:55:30;54.87;;;24.07;;
65033;SDS011;51601;51.356;12.458;2023-04-09T02:59:56;58.65;;;25.52;;
65033;SDS011;51601;51.356;12.458;2023-04-09T03:04:20;55.92;;;25.45;;
65033;SDS011;51601;51.356;12.458;2023-04-09T03:08:44;53.83;;;23.97;;
65033;SDS011;51601;51.356;12.458;2023-04-09T03:13:08;61.15;;;25.88;;
65033;SDS011;51601;51.356;12.458;2023-04-09T03:17:39;62.17;;;26.85;;
65033;SDS011;51601;51.356;12.458;2023-04-09T03:22:04;66.67;;;27.67;;
65033;SDS011;51601;51.356;12.458;2023-04-09T03:26:32;65.00;;;28.42;;
65033;SDS011;51601;51.356;12.458;2023-04-09T03:31:01;62.97;;;29.17;;
65033;SDS011;51601;51.356;12.458;2023-04-09T03:35:27;68.85;;;30.85;;
65033;SDS011;51601;51.356;12.458;2023-04-09T03:39:57;69.27;;;29.07;;
65033;SDS011;51601;51.356;12.458;2023-04-09T03:44:24;66.63;;;30.05;;
65033;SDS011;51601;51.356;12.458;2023-04-09T03:48:54;65.30;;;28.85;;
65033;SDS011;51601;51.356;12.458;2023-04-09T03:53:27;61.43;;;26.03;;
65033;SDS011;51601;51.356;12.458;2023-04-09T03:58:01;54.47;;;24.30;;
65033;SDS011;51601;51.356;12.458;2023-04-09T04:02:28;53.30;;;22.90;;
65033;SDS011;51601;51.356;12.458;2023-04-09T04:06:58;51.93;;;23.80;;
65033;SDS011;51601;51.356;12.458;2023-04-09T04:11:27;53.40;;;24.45;;
65033;SDS011;51601;51.356;12.458;2023-04-09T04:15:51;59.70;;;25.73;;
65033;SDS011;51601;51.356;12.458;2023-04-09T04:20:20;50.22;;;22.17;;
65033;SDS011;51601;51.356;12.458;2023-04-09T04:24:59;64.77;;;29.40;;
65033;SDS011;51601;51.356;12.458;2023-04-09T04:29:25;62.50;;;26.10;;
65033;SDS011;51601;51.356;12.458;2023-04-09T04:33:55;61.33;;;26.65;;
65033;SDS011;51601;51.356;12.458;2023-04-09T04:38:19;64.70;;;26.67;;
65033;SDS011;51601;51.356;12.458;2023-04-09T04:42:44;61.60;;;26.45;;
65033;SDS011;51601;51.356;12.458;2023-04-09T04:47:11;63.95;;;26.17;;
65033;SDS011;51601;51.356;12.458;2023-04-09T04:51:36;61.13;;;27.57;;
65033;SDS011;51601;51.356;12.458;2023-04-09T04:56:03;65.45;;;28.67;;
65033;SDS011;51601;51.356;12.458;2023-04-09T05:00:28;65.45;;;27.85;;
65033;SDS011;51601;51.356;12.458;2023-04-09T05:04:57;67.63;;;30.73;;
65033;SDS011;51601;51.356;12.458;2023-04-09T05:09:29;59.83;;;28.70;;
65033;SDS011;51601;51.356;12.458;2023-04-09T05:13:56;61.58;;;28.15;;
65033;SDS011;51601;51.356;12.458;2023-04-09T05:18:20;58.80;;;28.42;;
65033;SDS011;51601;51.356;12.458;2023-04-09T05:22:45;54.57;;;27.13;;
65033;SDS011;51601;51.356;12.458;2023-04-09T05:27:10;50.00;;;24.42;;
65033;SDS011;51601;51.356;12.458;2023-04-09T05:31:35;48.55;;;23.48;;
65033;SDS011;51601;51.356;12.458;2023-04-09T05:36:06;47.03;;;23.47;;
65033;SDS011;51601;51.356;12.458;2023-04-09T05:40:32;48.25;;;25.10;;
65033;SDS011;51601;51.356;12.458;2023-04-09T05:45:00;45.60;;;23.92;;
65033;SDS011;51601;51.356;12.458;2023-04-09T05:49:24;47.05;;;24.17;;
65033;SDS011;51601;51.356;12.458;2023-04-09T05:53:51;42.07;;;22.63;;
65033;SDS011;51601;51.356;12.458;2023-04-09T05:58:17;24.48;;;10.57;;
65033;SDS011;51601;51.356;12.458;2023-04-09T06:02:43;36.65;;;18.95;;
65033;SDS011;51601;51.356;12.458;2023-04-09T06:07:07;38.13;;;19.80;;
65033;SDS011;51601;51.356;12.458;2023-04-09T06:11:31;39.72;;;18.90;;
65033;SDS011;51601;51.356;12.458;2023-04-09T06:15:57;33.58;;;18.73;;
65033;SDS011;51601;51.356;12.458;2023-04-09T06:20:21;33.70;;;17.63;;
65033;SDS011;51601;51.356;12.458;2023-04-09T06:24:41;28.85;;;16.67;;
65033;SDS011;51601;51.356;12.458;2023-04-09T06:29:05;30.92;;;17.83;;
65033;SDS011;51601;51.356;12.458;2023-04-09T06:33:31;31.58;;;16.90;;
65033;SDS011;51601;51.356;12.458;2023-04-09T06:37:55;29.70;;;17.50;;
65033;SDS011;51601;51.356;12.458;2023-04-09T06:42:19;29.48;;;18.05;;
65033;SDS011;51601;51.356;12.458;2023-04-09T06:46:50;33.97;;;19.92;;
65033;SDS011;51601;51.356;12.458;2023-04-09T06:51:16;32.50;;;19.90;;
65033;SDS011;51601;51.356;12.458;2023-04-09T06:55:40;33.47;;;19.92;;
65033;SDS011;51601;51.356;12.458;2023-04-09T07:00:04;31.67;;;18.40;;
65033;SDS011;51601;51.356;12.458;2023-04-09T07:04:29;34.07;;;19.17;;
65033;SDS011;51601;51.356;12.458;2023-04-09T07:08:55;28.42;;;16.52;;
65033;SDS011;51601;51.356;12.458;2023-04-09T07:13:19;27.88;;;15.13;;
65033;SDS011;51601;51.356;12.458;2023-04-09T07:17:43;29.10;;;17.65;;
65033;SDS011;51601;51.356;12.458;2023-04-09T07:22:07;27.90;;;17.30;;
65033;SDS011;51601;51.356;12.458;2023-04-09T07:26:33;27.50;;;17.45;;
65033;SDS011;51601;51.356;12.458;2023-04-09T07:30:57;26.40;;;15.80;;
65033;SDS011;51601;51.356;12.458;2023-04-09T07:35:22;25.17;;;15.27;;
65033;SDS011;51601;51.356;12.458;2023-04-09T07:39:46;26.63;;;15.02;;
65033;SDS011;51601;51.356;12.458;2023-04-09T07:44:13;23.00;;;14.13;;
65033;SDS011;51601;51.356;12.458;2023-04-09T07:48:37;24.43;;;15.13;;
65033;SDS011;51601;51.356;12.458;2023-04-09T07:53:02;24.85;;;15.55;;
65033;SDS011;51601;51.356;12.458;2023-04-09T07:57:26;26.25;;;16.75;;
65033;SDS011;51601;51.356;12.458;2023-04-09T08:01:53;25.88;;;16.75;;
65033;SDS011;51601;51.356;12.458;2023-04-09T08:06:17;25.70;;;17.23;;
65033;SDS011;51601;51.356;12.458;2023-04-09T08:10:44;25.23;;;15.00;;
65033;SDS011;51601;51.356;12.458;2023-04-09T08:15:09;26.77;;;16.92;;
65033;SDS011;51601;51.356;12.458;2023-04-09T08:19:34;19.40;;;11.90;;
65033;SDS011;51601;51.356;12.458;2023-04-09T08:24:02;27.58;;;17.85;;
65033;SDS011;51601;51.356;12.458;2023-04-09T08:28:27;28.60;;;18.15;;
65033;SDS011;51601;51.356;12.458;2023-04-09T08:32:51;23.10;;;15.43;;
65033;SDS011;51601;51.356;12.458;2023-04-09T08:37:16;23.20;;;15.60;;
65033;SDS011;51601;51.356;12.458;2023-04-09T08:41:40;21.42;;;14.93;;
65033;SDS011;51601;51.356;12.458;2023-04-09T08:46:05;23.60;;;15.27;;
65033;SDS011;51601;51.356;12.458;2023-04-09T08:50:29;19.60;;;13.07;;
65033;SDS011;51601;51.356;12.458;2023-04-09T08:54:55;19.85;;;13.30;;
65033;SDS011;51601;51.356;12.458;2023-04-09T08:59:19;24.65;;;16.50;;
65033;SDS011;51601;51.356;12.458;2023-04-09T09:03:51;21.17;;;14.87;;
65033;SDS011;51601;51.356;12.458;2023-04-09T09:08:21;22.73;;;15.30;;
65033;SDS011;51601;51.356;12.458;2023-04-09T09:12:48;23.08;;;15.20;;
65033;SDS011;51601;51.356;12.458;2023-04-09T09:17:12;19.33;;;13.87;;
65033;SDS011;51601;51.356;12.458;2023-04-09T09:21:37;18.80;;;13.38;;
65033;SDS011;51601;51.356;12.458;2023-04-09T09:26:09;19.33;;;14.25;;
65033;SDS011;51601;51.356;12.458;2023-04-09T09:30:36;19.55;;;14.18;;
65033;SDS011;51601;51.356;12.458;2023-04-09T09:35:02;19.73;;;14.17;;
65033;SDS011;51601;51.356;12.458;2023-04-09T09:39:28;18.58;;;13.63;;
65033;SDS011;51601;51.356;12.458;2023-04-09T09:44:06;19.33;;;13.95;;
65033;SDS011;51601;51.356;12.458;2023-04-09T09:48:28;17.63;;;13.00;;
65033;SDS011;51601;51.356;12.458;2023-04-09T09:52:54;17.25;;;13.10;;
65033;SDS011;51601;51.356;12.458;2023-04-09T09:57:22;19.00;;;12.85;;
65033;SDS011;51601;51.356;12.458;2023-04-09T10:01:50;16.80;;;12.40;;
65033;SDS011;51601;51.356;12.458;2023-04-09T10:06:20;17.08;;;12.68;;
65033;SDS011;51601;51.356;12.458;2023-04-09T10:10:45;17.52;;;12.32;;
65033;SDS011;51601;51.356;12.458;2023-04-09T10:15:09;17.02;;;12.18;;
65033;SDS011;51601;51.356;12.458;2023-04-09T10:19:34;15.13;;;11.33;;
65033;SDS011;51601;51.356;12.458;2023-04-09T10:24:04;15.73;;;11.23;;
65033;SDS011;51601;51.356;12.458;2023-04-09T10:28:29;15.63;;;11.75;;
65033;SDS011;51601;51.356;12.458;2023-04-09T10:32:53;15.17;;;11.73;;
65033;SDS011;51601;51.356;12.458;2023-04-09T10:37:19;16.27;;;11.88;;
65033;SDS011;51601;51.356;12.458;2023-04-09T10:41:46;15.82;;;11.60;;
65033;SDS011;51601;51.356;12.458;2023-04-09T10:46:27;15.33;;;11.33;;
65033;SDS011;51601;51.356;12.458;2023-04-09T10:50:52;16.23;;;11.38;;
65033;SDS011;51601;51.356;12.458;2023-04-09T11:00:01;14.95;;;11.75;;
65033;SDS011;51601;51.356;12.458;2023-04-09T11:04:26;14.87;;;11.10;;
65033;SDS011;51601;51.356;12.458;2023-04-09T11:09:00;15.35;;;11.43;;
65033;SDS011;51601;51.356;12.458;2023-04-09T11:13:25;15.35;;;11.05;;
65033;SDS011;51601;51.356;12.458;2023-04-09T11:17:50;14.33;;;10.93;;
65033;SDS011;51601;51.356;12.458;2023-04-09T11:22:15;15.00;;;10.73;;
65033;SDS011;51601;51.356;12.458;2023-04-09T11:26:39;16.20;;;12.00;;
65033;SDS011;51601;51.356;12.458;2023-04-09T11:31:03;15.60;;;11.50;;
65033;SDS011;51601;51.356;12.458;2023-04-09T11:35:30;16.38;;;11.65;;
65033;SDS011;51601;51.356;12.458;2023-04-09T11:39:56;16.58;;;11.82;;
65033;SDS011;51601;51.356;12.458;2023-04-09T11:44:22;15.57;;;10.93;;
65033;SDS011;51601;51.356;12.458;2023-04-09T11:48:46;17.10;;;11.47;;
65033;SDS011;51601;51.356;12.458;2023-04-09T11:53:18;17.20;;;12.60;;
65033;SDS011;51601;51.356;12.458;2023-04-09T11:57:43;18.50;;;13.25;;
65033;SDS011;51601;51.356;12.458;2023-04-09T12:02:08;19.17;;;13.43;;
65033;SDS011;51601;51.356;12.458;2023-04-09T12:06:32;18.63;;;13.40;;
65033;SDS011;51601;51.356;12.458;2023-04-09T12:11:08;19.58;;;14.20;;
65033;SDS011;51601;51.356;12.458;2023-04-09T12:15:35;18.77;;;12.87;;
65033;SDS011;51601;51.356;12.458;2023-04-09T12:20:02;19.85;;;13.07;;
65033;SDS011;51601;51.356;12.458;2023-04-09T12:24:28;19.02;;;12.52;;
65033;SDS011;51601;51.356;12.458;2023-04-09T12:28:53;18.73;;;11.63;;
65033;SDS011;51601;51.356;12.458;2023-04-09T12:33:17;19.37;;;12.07;;
65033;SDS011;51601;51.356;12.458;2023-04-09T12:37:41;20.60;;;11.90;;
65033;SDS011;51601;51.356;12.458;2023-04-09T12:42:05;19.70;;;11.75;;
65033;SDS011;51601;51.356;12.458;2023-04-09T12:46:30;21.90;;;12.40;;
65033;SDS011;51601;51.356;12.458;2023-04-09T12:50:54;19.38;;;11.70;;
65033;SDS011;51601;51.356;12.458;2023-04-09T12:55:18;22.10;;;12.98;;
65033;SDS011;51601;51.356;12.458;2023-04-09T12:59:47;20.73;;;12.00;;
65033;SDS011;51601;51.356;12.458;2023-04-09T13:04:12;20.13;;;10.73;;
65033;SDS011;51601;51.356;12.458;2023-04-09T13:08:37;19.75;;;11.45;;
65033;SDS011;51601;51.356;12.458;2023-04-09T13:13:01;19.15;;;11.30;;
65033;SDS011;51601;51.356;12.458;2023-04-09T13:17:25;17.27;;;10.23;;
65033;SDS011;51601;51.356;12.458;2023-04-09T13:21:51;17.83;;;9.98;;
65033;SDS011;51601;51.356;12.458;2023-04-09T13:26:15;17.50;;;10.68;;
65033;SDS011;51601;51.356;12.458;2023-04-09T13:30:42;17.20;;;10.63;;
65033;SDS011;51601;51.356;12.458;2023-04-09T13:35:06;18.95;;;10.85;;
65033;SDS011;51601;51.356;12.458;2023-04-09T13:39:33;19.30;;;9.93;;
65033;SDS011;51601;51.356;12.458;2023-04-09T13:43:57;16.67;;;9.23;;
65033;SDS011;51601;51.356;12.458;2023-04-09T13:48:22;18.45;;;10.23;;
65033;SDS011;51601;51.356;12.458;2023-04-09T13:52:46;15.63;;;9.13;;
65033;SDS011;51601;51.356;12.458;2023-04-09T13:57:12;15.45;;;9.20;;
65033;SDS011;51601;51.356;12.458;2023-04-09T14:01:36;16.00;;;9.43;;
65033;SDS011;51601;51.356;12.458;2023-04-09T14:06:00;16.85;;;9.77;;
65033;SDS011;51601;51.356;12.458;2023-04-09T14:10:24;15.60;;;9.30;;
65033;SDS011;51601;51.356;12.458;2023-04-09T14:14:50;16.30;;;9.27;;
65033;SDS011;51601;51.356;12.458;2023-04-09T14:19:14;16.27;;;9.07;;
65033;SDS011;51601;51.356;12.458;2023-04-09T14:23:40;16.50;;;9.40;;
65033;SDS011;51601;51.356;12.458;2023-04-09T14:28:04;17.70;;;10.20;;
65033;SDS011;51601;51.356;12.458;2023-04-09T14:32:30;15.95;;;9.25;;
65033;SDS011;51601;51.356;12.458;2023-04-09T14:36:54;17.20;;;9.38;;
65033;SDS011;51601;51.356;12.458;2023-04-09T14:41:18;16.50;;;9.00;;
65033;SDS011;51601;51.356;12.458;2023-04-09T14:45:43;15.17;;;8.10;;
65033;SDS011;51601;51.356;12.458;2023-04-09T14:50:09;14.50;;;8.38;;
65033;SDS011;51601;51.356;12.458;2023-04-09T14:54:34;15.88;;;8.30;;
65033;SDS011;51601;51.356;12.458;2023-04-09T14:58:58;14.97;;;7.70;;
65033;SDS011;51601;51.356;12.458;2023-04-09T15:03:23;14.48;;;7.97;;
65033;SDS011;51601;51.356;12.458;2023-04-09T15:07:48;13.82;;;7.68;;
65033;SDS011;51601;51.356;12.458;2023-04-09T15:12:12;13.67;;;7.13;;
65033;SDS011;51601;51.356;12.458;2023-04-09T15:16:36;14.88;;;7.32;;
65033;SDS011;51601;51.356;12.458;2023-04-09T15:21:00;12.07;;;6.68;;
65033;SDS011;51601;51.356;12.458;2023-04-09T15:25:26;12.82;;;7.20;;
65033;SDS011;51601;51.356;12.458;2023-04-09T15:29:50;13.27;;;7.50;;
65033;SDS011;51601;51.356;12.458;2023-04-09T15:34:14;12.75;;;7.50;;
65033;SDS011;51601;51.356;12.458;2023-04-09T15:38:38;12.05;;;6.50;;
65033;SDS011;51601;51.356;12.458;2023-04-09T15:43:03;11.33;;;5.90;;
65033;SDS011;51601;51.356;12.458;2023-04-09T15:47:27;11.15;;;5.85;;
65033;SDS011;51601;51.356;12.458;2023-04-09T15:51:54;11.25;;;6.03;;
65033;SDS011;51601;51.356;12.458;2023-04-09T15:56:18;10.47;;;5.67;;
65033;SDS011;51601;51.356;12.458;2023-04-09T16:00:44;10.30;;;6.05;;
65033;SDS011;51601;51.356;12.458;2023-04-09T16:05:11;12.35;;;6.35;;
65033;SDS011;51601;51.356;12.458;2023-04-09T16:09:35;13.30;;;6.95;;
65033;SDS011;51601;51.356;12.458;2023-04-09T16:14:00;12.83;;;6.70;;
65033;SDS011;51601;51.356;12.458;2023-04-09T16:18:26;13.73;;;7.55;;
65033;SDS011;51601;51.356;12.458;2023-04-09T16:22:59;15.50;;;8.48;;
65033;SDS011;51601;51.356;12.458;2023-04-09T16:27:23;15.73;;;9.20;;
65033;SDS011;51601;51.356;12.458;2023-04-09T16:31:51;16.23;;;9.30;;
65033;SDS011;51601;51.356;12.458;2023-04-09T16:36:18;16.50;;;9.25;;
65033;SDS011;51601;51.356;12.458;2023-04-09T16:40:42;14.07;;;8.63;;
65033;SDS011;51601;51.356;12.458;2023-04-09T16:45:09;15.00;;;8.80;;
65033;SDS011;51601;51.356;12.458;2023-04-09T16:49:34;15.88;;;9.63;;
65033;SDS011;51601;51.356;12.458;2023-04-09T16:53:59;15.20;;;9.50;;
65033;SDS011;51601;51.356;12.458;2023-04-09T16:58:23;16.20;;;9.17;;
65033;SDS011;51601;51.356;12.458;2023-04-09T17:02:52;17.58;;;10.15;;
65033;SDS011;51601;51.356;12.458;2023-04-09T17:07:16;16.85;;;9.50;;
65033;SDS011;51601;51.356;12.458;2023-04-09T17:11:48;16.67;;;8.93;;
65033;SDS011;51601;51.356;12.458;2023-04-09T17:16:14;15.35;;;8.65;;
65033;SDS011;51601;51.356;12.458;2023-04-09T17:20:44;16.25;;;9.18;;
65033;SDS011;51601;51.356;12.458;2023-04-09T17:25:19;16.60;;;9.17;;
65033;SDS011;51601;51.356;12.458;2023-04-09T17:29:48;16.50;;;9.35;;
65033;SDS011;51601;51.356;12.458;2023-04-09T17:34:13;16.10;;;9.50;;
65033;SDS011;51601;51.356;12.458;2023-04-09T17:38:42;19.25;;;10.82;;
65033;SDS011;51601;51.356;12.458;2023-04-09T17:43:11;18.77;;;10.50;;
65033;SDS011;51601;51.356;12.458;2023-04-09T17:47:40;20.08;;;11.20;;
65033;SDS011;51601;51.356;12.458;2023-04-09T17:52:07;19.40;;;10.98;;
65033;SDS011;51601;51.356;12.458;2023-04-09T17:56:31;21.67;;;11.40;;
65033;SDS011;51601;51.356;12.458;2023-04-09T18:01:05;20.55;;;12.15;;
65033;SDS011;51601;51.356;12.458;2023-04-09T18:05:39;20.45;;;11.35;;
65033;SDS011;51601;51.356;12.458;2023-04-09T18:10:04;20.63;;;11.53;;
65033;SDS011;51601;51.356;12.458;2023-04-09T18:14:43;20.92;;;11.63;;
65033;SDS011;51601;51.356;12.458;2023-04-09T18:19:05;19.08;;;11.75;;
65033;SDS011;51601;51.356;12.458;2023-04-09T18:23:28;18.95;;;11.88;;
65033;SDS011;51601;51.356;12.458;2023-04-09T18:27:48;20.77;;;11.80;;
65033;SDS011;51601;51.356;12.458;2023-04-09T18:32:07;22.33;;;11.52;;
65033;SDS011;51601;51.356;12.458;2023-04-09T18:36:34;18.10;;;11.27;;
65033;SDS011;51601;51.356;12.458;2023-04-09T18:41:10;22.47;;;12.83;;
65033;SDS011;51601;51.356;12.458;2023-04-09T18:45:37;21.05;;;12.00;;
65033;SDS011;51601;51.356;12.458;2023-04-09T18:50:05;25.90;;;13.48;;
65033;SDS011;51601;51.356;12.458;2023-04-09T18:54:30;21.23;;;11.70;;
65033;SDS011;51601;51.356;12.458;2023-04-09T18:58:59;19.00;;;11.02;;
65033;SDS011;51601;51.356;12.458;2023-04-09T19:03:23;22.20;;;13.00;;
65033;SDS011;51601;51.356;12.458;2023-04-09T19:07:55;23.88;;;13.40;;
65033;SDS011;51601;51.356;12.458;2023-04-09T19:12:20;26.57;;;15.17;;
65033;SDS011;51601;51.356;12.458;2023-04-09T19:16:46;23.55;;;13.40;;
65033;SDS011;51601;51.356;12.458;2023-04-09T19:21:20;28.55;;;16.08;;
65033;SDS011;51601;51.356;12.458;2023-04-09T19:25:48;31.13;;;17.80;;
65033;SDS011;51601;51.356;12.458;2023-04-09T19:30:14;33.92;;;18.45;;
65033;SDS011;51601;51.356;12.458;2023-04-09T19:34:40;40.00;;;21.33;;
65033;SDS011;51601;51.356;12.458;2023-04-09T19:39:07;36.67;;;19.87;;
65033;SDS011;51601;51.356;12.458;2023-04-09T19:43:32;31.88;;;18.13;;
65033;SDS011;51601;51.356;12.458;2023-04-09T19:48:00;31.45;;;17.98;;
65033;SDS011;51601;51.356;12.458;2023-04-09T19:52:29;34.75;;;19.25;;
65033;SDS011;51601;51.356;12.458;2023-04-09T19:56:54;31.57;;;18.20;;
65033;SDS011;51601;51.356;12.458;2023-04-09T20:01:18;30.23;;;17.00;;
65033;SDS011;51601;51.356;12.458;2023-04-09T20:05:53;31.27;;;17.25;;
65033;SDS011;51601;51.356;12.458;2023-04-09T20:10:18;28.40;;;15.43;;
65033;SDS011;51601;51.356;12.458;2023-04-09T20:14:45;25.98;;;14.43;;
65033;SDS011;51601;51.356;12.458;2023-04-09T20:19:13;30.08;;;15.23;;
65033;SDS011;51601;51.356;12.458;2023-04-09T20:23:55;32.97;;;18.27;;
65033;SDS011;51601;51.356;12.458;2023-04-09T20:28:29;28.75;;;16.45;;
65033;SDS011;51601;51.356;12.458;2023-04-09T20:33:34;30.58;;;16.73;;
65033;SDS011;51601;51.356;12.458;2023-04-09T20:38:15;26.65;;;15.93;;
65033;SDS011;51601;51.356;12.458;2023-04-09T20:42:41;27.93;;;15.70;;
65033;SDS011;51601;51.356;12.458;2023-04-09T20:47:07;30.65;;;17.60;;
65033;SDS011;51601;51.356;12.458;2023-04-09T20:51:31;37.67;;;20.50;;
65033;SDS011;51601;51.356;12.458;2023-04-09T20:56:11;33.37;;;18.90;;
65033;SDS011;51601;51.356;12.458;2023-04-09T21:00:46;37.15;;;20.27;;
65033;SDS011;51601;51.356;12.458;2023-04-09T21:05:11;35.17;;;19.50;;
65033;SDS011;51601;51.356;12.458;2023-04-09T21:09:45;34.70;;;19.77;;
65033;SDS011;51601;51.356;12.458;2023-04-09T21:14:09;34.70;;;18.80;;
65033;SDS011;51601;51.356;12.458;2023-04-09T21:18:34;34.90;;;19.02;;
65033;SDS011;51601;51.356;12.458;2023-04-09T21:23:00;35.75;;;19.42;;
65033;SDS011;51601;51.356;12.458;2023-04-09T21:27:27;37.30;;;19.40;;
65033;SDS011;51601;51.356;12.458;2023-04-09T21:31:51;35.28;;;19.27;;
65033;SDS011;51601;51.356;12.458;2023-04-09T21:36:15;36.97;;;19.83;;
65033;SDS011;51601;51.356;12.458;2023-04-09T21:40:40;35.57;;;20.43;;
65033;SDS011;51601;51.356;12.458;2023-04-09T21:45:05;34.25;;;18.77;;
65033;SDS011;51601;51.356;12.458;2023-04-09T21:49:30;32.25;;;18.42;;
65033;SDS011;51601;51.356;12.458;2023-04-09T21:54:00;32.70;;;18.23;;
65033;SDS011;51601;51.356;12.458;2023-04-09T21:58:28;32.05;;;18.30;;
65033;SDS011;51601;51.356;12.458;2023-04-09T22:02:55;35.50;;;18.80;;
65033;SDS011;51601;51.356;12.458;2023-04-09T22:07:22;31.80;;;17.50;;
65033;SDS011;51601;51.356;12.458;2023-04-09T22:11:47;34.93;;;18.03;;
65033;SDS011;51601;51.356;12.458;2023-04-09T22:16:12;31.23;;;18.05;;
65033;SDS011;51601;51.356;12.458;2023-04-09T22:20:38;32.17;;;17.75;;
65033;SDS011;51601;51.356;12.458;2023-04-09T22:25:02;39.37;;;19.63;;
65033;SDS011;51601;51.356;12.458;2023-04-09T22:29:32;45.42;;;23.15;;
65033;SDS011;51601;51.356;12.458;2023-04-09T22:34:01;40.90;;;22.30;;
65033;SDS011;51601;51.356;12.458;2023-04-09T22:38:44;42.10;;;22.37;;
65033;SDS011;51601;51.356;12.458;2023-04-09T22:43:10;41.10;;;21.88;;
65033;SDS011;51601;51.356;12.458;2023-04-09T22:47:34;44.25;;;23.42;;
65033;SDS011;51601;51.356;12.458;2023-04-09T22:52:00;44.92;;;23.10;;
65033;SDS011;51601;51.356;12.458;2023-04-09T22:56:26;38.47;;;20.40;;
65033;SDS011;51601;51.356;12.458;2023-04-09T23:00:51;37.42;;;21.73;;
65033;SDS011;51601;51.356;12.458;2023-04-09T23:05:15;38.70;;;19.33;;
65033;SDS011;51601;51.356;12.458;2023-04-09T23:09:41;39.87;;;21.00;;
65033;SDS011;51601;51.356;12.458;2023-04-09T23:14:06;38.60;;;20.40;;
65033;SDS011;51601;51.356;12.458;2023-04-09T23:18:31;37.13;;;20.10;;
65033;SDS011;51601;51.356;12.458;2023-04-09T23:22:55;37.27;;;20.63;;
65033;SDS011;51601;51.356;12.458;2023-04-09T23:27:20;42.13;;;21.27;;
65033;SDS011;51601;51.356;12.458;2023-04-09T23:31:49;35.72;;;19.98;;
65033;SDS011;51601;51.356;12.458;2023-04-09T23:36:13;35.60;;;19.42;;
65033;SDS011;51601;51.356;12.458;2023-04-09T23:40:37;34.63;;;19.27;;
65033;SDS011;51601;51.356;12.458;2023-04-09T23:45:03;34.60;;;18.48;;
65033;SDS011;51601;51.356;12.458;2023-04-09T23:49:27;32.92;;;17.30;;
65033;SDS011;51601;51.356;12.458;2023-04-09T23:53:52;32.43;;;16.77;;
65033;SDS011;51601;51.356;12.458;2023-04-09T23:58:16;34.05;;;17.77;;
